Brevik Bridge — VRHY7 — position and weather

sailwx.info

Track history (hours):
 
Tides and Currents Weather Stations Pressure Air Temp Water Temp Dewpoint Dewpoint Depression Visibility Wind Speed Wind Dir Waves Ship Positions

Brevik Bridge

Last reported at 2015-Jul-04 06:33 UTC. Time now 2015-Jul-04 11:43 UTC.
Position N 01°14' E 103°42'.

Length 268 m; draft 11.4 m.

Type: Cargo ship. MMSI: 477866200.

Date/timePositionNaut miles runAvg speedWind from/ knotsBaromVisibWave heightAir tempDewpointWater temp
2015-Jul-04 06:33N 01°14' E 103°42'5 5.3
2015-Jul-04 05:33N 01°17' E 103°46'0 0.0
2015-Jul-04 04:28N 01°17' E 103°46'0 0.0
2015-Jul-04 03:31N 01°17' E 103°46'0 0.0
2015-Jul-04 02:31N 01°17' E 103°46'0 0.0
2015-Jul-04 01:25N 01°17' E 103°46'0 0.0
2015-Jul-04 00:31N 01°17' E 103°46'0 0.0
2015-Jul-03 23:31N 01°17' E 103°46'0 0.0
2015-Jul-03 22:31N 01°17' E 103°46'0 0.0
2015-Jul-03 21:31N 01°17' E 103°46'0 0.0
2015-Jul-03 20:28N 01°17' E 103°46'0 0.0
2015-Jul-03 19:31N 01°17' E 103°46'0 0.1
2015-Jul-03 18:28N 01°17' E 103°46'0 0.1
2015-Jul-03 17:31N 01°17' E 103°46'0 0.0
2015-Jul-03 16:28N 01°17' E 103°46'0 0.0
2015-Jul-03 15:31N 01°17' E 103°46'0 0.0
2015-Jul-03 14:31N 01°17' E 103°46'0 0.0
2015-Jul-03 13:31N 01°17' E 103°46'0 0.0
2015-Jul-03 12:31N 01°17' E 103°46'0 0.0
2015-Jul-03 11:31N 01°17' E 103°46'0 0.0
2015-Jul-03 10:31N 01°17' E 103°46'0 0.0
2015-Jul-03 09:31N 01°17' E 103°46'0 0.0
2015-Jul-03 08:31N 01°17' E 103°46'0 0.1
2015-Jul-03 07:33N 01°17' E 103°46'1 1.0
2015-Jul-03 06:33N 01°16' E 103°46'9 8.5
2015-Jul-03 05:33N 01°14' E 103°54'5 4.6
2015-Jul-03 04:33N 01°15' E 103°58'9 8.9
2015-Jul-03 03:33N 01°17' E 104°07'  
2015-Jun-29 17:33N 22°07' E 114°16'1310.5
2015-Jun-29 16:19N 22°16' E 114°06'1210.4
2015-Jun-29 15:09N 22°22' E 113°55'5 8.2
2015-Jun-29 14:33N 22°26' E 113°53'1 0.5
2015-Jun-29 13:27N 22°27' E 113°53'0 0.0
2015-Jun-29 12:27N 22°27' E 113°53'0 0.1
2015-Jun-29 11:33N 22°27' E 113°53'0 0.1
2015-Jun-29 10:27N 22°27' E 113°53'0 0.0
2015-Jun-29 09:33N 22°27' E 113°53'0 0.1
2015-Jun-29 08:33N 22°27' E 113°53'0 0.1
2015-Jun-29 07:33N 22°27' E 113°53'0 0.0
2015-Jun-29 06:33N 22°27' E 113°53'0 0.0
2015-Jun-29 05:33N 22°27' E 113°53'0 0.0
2015-Jun-29 04:33N 22°27' E 113°53'0 0.1
2015-Jun-29 03:33N 22°27' E 113°53'0 0.1
2015-Jun-29 02:33N 22°27' E 113°53'3 3.2
2015-Jun-29 01:33N 22°24' E 113°54'1110.4
2015-Jun-29 00:30N 22°20' E 114°05'3 3.1
2015-Jun-28 23:33N 22°20' E 114°08'0 0.0
2015-Jun-28 22:30N 22°20' E 114°08'0 0.1
2015-Jun-28 21:33N 22°20' E 114°08'0 0.0
2015-Jun-28 20:33N 22°20' E 114°08'0 0.1
2015-Jun-28 19:33N 22°20' E 114°08'0 0.0
2015-Jun-28 18:33N 22°20' E 114°08'0 0.0
2015-Jun-28 17:33N 22°20' E 114°08'0 0.0
2015-Jun-28 16:33N 22°20' E 114°08'0 0.0
2015-Jun-28 15:33N 22°20' E 114°08'0 0.0
2015-Jun-28 14:33N 22°20' E 114°08'0 0.0
2015-Jun-28 13:33N 22°20' E 114°08'0 0.0
2015-Jun-28 12:33N 22°20' E 114°08'0 0.0
2015-Jun-28 11:33N 22°20' E 114°08'0 0.0
2015-Jun-28 10:33N 22°20' E 114°08'0 0.0
2015-Jun-28 09:33N 22°20' E 114°08'0 0.0
2015-Jun-28 08:33N 22°20' E 114°08'0 0.0
2015-Jun-28 07:33N 22°20' E 114°08'0 0.0
2015-Jun-28 06:33N 22°20' E 114°08'0 0.0
2015-Jun-28 05:33N 22°20' E 114°08'0 0.0
2015-Jun-28 04:33N 22°20' E 114°08'0 0.0
2015-Jun-28 03:33N 22°20' E 114°08'0 0.0
2015-Jun-28 02:33N 22°20' E 114°08'1 0.7
2015-Jun-28 01:34N 22°20' E 114°07'7 6.6
2015-Jun-28 00:28N 22°13' E 114°10'8 9.0
2015-Jun-27 23:33N 22°09' E 114°18'5 4.8
2015-Jun-27 22:33N 22°09' E 114°23'1514.8
2015-Jun-27 21:33N 22°09' E 114°39'15315.0
2015-Jun-27 11:21N 23°05' E 117°14'4315.5
2015-Jun-27 08:33N 23°35' E 117°48'1414.4
2015-Jun-27 07:33N 23°43' E 118°00'1413.9
2015-Jun-27 06:33N 23°54' E 118°10'1414.0
2015-Jun-27 05:33N 24°04' E 118°20'1414.4
2015-Jun-27 04:33N 24°17' E 118°13'1211.6
2015-Jun-27 03:33N 24°26' E 118°04'3 2.2
2015-Jun-27 02:14N 24°27' E 118°01'0 0.0
2015-Jun-26 21:20N 24°27' E 118°01'21 3.6
2015-Jun-26 15:22N 24°12' E 118°18'0 0.1
2015-Jun-26 13:12N 24°12' E 118°18'2010.3
2015-Jun-26 11:14N 24°26' E 118°02'811.6
2015-Jun-26 10:34N 24°21' E 118°09'1111.4
2015-Jun-26 09:33N 24°13' E 118°17'10 8.8
2015-Jun-26 08:22N 24°04' E 118°24'1214.6
2015-Jun-26 07:33N 23°54' E 118°30'9315.1
2015-Jun-26 01:25N 22°57' E 119°50'1416.2
2015-Jun-26 00:33N 22°47' E 120°00'1615.7
2015-Jun-25 23:33N 22°36' E 120°12'7 7.2
2015-Jun-25 22:33N 22°33' E 120°19'0 0.3
2015-Jun-25 21:29N 22°33' E 120°19'0 0.0
2015-Jun-25 20:29N 22°33' E 120°19'0 0.0
2015-Jun-25 17:29N 22°33' E 120°19'0 0.0
2015-Jun-25 16:29N 22°33' E 120°19'0 0.0
2015-Jun-25 15:23N 22°33' E 120°19'0 0.0
2015-Jun-25 14:23N 22°33' E 120°19'0 0.0
2015-Jun-25 13:29N 22°33' E 120°19'0 0.0
2015-Jun-25 12:20N 22°33' E 120°19'0 0.0
2015-Jun-25 11:20N 22°33' E 120°19'0 0.0
2015-Jun-25 10:32N 22°33' E 120°19'0 0.0
2015-Jun-25 09:32N 22°33' E 120°19'0 0.0
2015-Jun-25 08:32N 22°33' E 120°19'0 0.0
2015-Jun-25 07:32N 22°33' E 120°19'0 0.0
2015-Jun-25 06:32N 22°33' E 120°19'0 0.0
2015-Jun-25 05:33N 22°33' E 120°19'6 6.2
2015-Jun-25 04:32N 22°31' E 120°13'1111.6
2015-Jun-25 03:33N 22°22' E 120°05'  
Track history (hours):
 
Tides and Currents Weather Stations Pressure Air Temp Water Temp Dewpoint Dewpoint Depression Visibility Wind Speed Wind Dir Waves Ship Positions

Brevik Bridge

Last reported at 2015-Jul-04 06:33 UTC. Time now 2015-Jul-04 11:43 UTC.
Position N 01°14' E 103°42'.

Length 268 m; draft 11.4 m.

Type: Cargo ship. MMSI: 477866200.

Date/timePositionNaut miles runAvg speedWind from/ knotsBaromVisibWave heightAir tempDewpointWater temp
2015-Jul-04 06:33N 01°14' E 103°42'5 5.3
2015-Jul-04 05:33N 01°17' E 103°46'0 0.0
2015-Jul-04 04:28N 01°17' E 103°46'0 0.0
2015-Jul-04 03:31N 01°17' E 103°46'0 0.0
2015-Jul-04 02:31N 01°17' E 103°46'0 0.0
2015-Jul-04 01:25N 01°17' E 103°46'0 0.0
2015-Jul-04 00:31N 01°17' E 103°46'0 0.0
2015-Jul-03 23:31N 01°17' E 103°46'0 0.0
2015-Jul-03 22:31N 01°17' E 103°46'0 0.0
2015-Jul-03 21:31N 01°17' E 103°46'0 0.0
2015-Jul-03 20:28N 01°17' E 103°46'0 0.0
2015-Jul-03 19:31N 01°17' E 103°46'0 0.1
2015-Jul-03 18:28N 01°17' E 103°46'0 0.1
2015-Jul-03 17:31N 01°17' E 103°46'0 0.0
2015-Jul-03 16:28N 01°17' E 103°46'0 0.0
2015-Jul-03 15:31N 01°17' E 103°46'0 0.0
2015-Jul-03 14:31N 01°17' E 103°46'0 0.0
2015-Jul-03 13:31N 01°17' E 103°46'0 0.0
2015-Jul-03 12:31N 01°17' E 103°46'0 0.0
2015-Jul-03 11:31N 01°17' E 103°46'0 0.0
2015-Jul-03 10:31N 01°17' E 103°46'0 0.0
2015-Jul-03 09:31N 01°17' E 103°46'0 0.0
2015-Jul-03 08:31N 01°17' E 103°46'0 0.1
2015-Jul-03 07:33N 01°17' E 103°46'1 1.0
2015-Jul-03 06:33N 01°16' E 103°46'9 8.5
2015-Jul-03 05:33N 01°14' E 103°54'5 4.6
2015-Jul-03 04:33N 01°15' E 103°58'9 8.9
2015-Jul-03 03:33N 01°17' E 104°07'  
2015-Jun-29 17:33N 22°07' E 114°16'1310.5
2015-Jun-29 16:19N 22°16' E 114°06'1210.4
2015-Jun-29 15:09N 22°22' E 113°55'5 8.2
2015-Jun-29 14:33N 22°26' E 113°53'1 0.5
2015-Jun-29 13:27N 22°27' E 113°53'0 0.0
2015-Jun-29 12:27N 22°27' E 113°53'0 0.1
2015-Jun-29 11:33N 22°27' E 113°53'0 0.1
2015-Jun-29 10:27N 22°27' E 113°53'0 0.0
2015-Jun-29 09:33N 22°27' E 113°53'0 0.1
2015-Jun-29 08:33N 22°27' E 113°53'0 0.1
2015-Jun-29 07:33N 22°27' E 113°53'0 0.0
2015-Jun-29 06:33N 22°27' E 113°53'0 0.0
2015-Jun-29 05:33N 22°27' E 113°53'0 0.0
2015-Jun-29 04:33N 22°27' E 113°53'0 0.1
2015-Jun-29 03:33N 22°27' E 113°53'0 0.1
2015-Jun-29 02:33N 22°27' E 113°53'3 3.2
2015-Jun-29 01:33N 22°24' E 113°54'1110.4
2015-Jun-29 00:30N 22°20' E 114°05'3 3.1
2015-Jun-28 23:33N 22°20' E 114°08'0 0.0
2015-Jun-28 22:30N 22°20' E 114°08'0 0.1
2015-Jun-28 21:33N 22°20' E 114°08'0 0.0
2015-Jun-28 20:33N 22°20' E 114°08'0 0.1
2015-Jun-28 19:33N 22°20' E 114°08'0 0.0
2015-Jun-28 18:33N 22°20' E 114°08'0 0.0
2015-Jun-28 17:33N 22°20' E 114°08'0 0.0
2015-Jun-28 16:33N 22°20' E 114°08'0 0.0
2015-Jun-28 15:33N 22°20' E 114°08'0 0.0
2015-Jun-28 14:33N 22°20' E 114°08'0 0.0
2015-Jun-28 13:33N 22°20' E 114°08'0 0.0
2015-Jun-28 12:33N 22°20' E 114°08'0 0.0
2015-Jun-28 11:33N 22°20' E 114°08'0 0.0
2015-Jun-28 10:33N 22°20' E 114°08'0 0.0
2015-Jun-28 09:33N 22°20' E 114°08'0 0.0
2015-Jun-28 08:33N 22°20' E 114°08'0 0.0
2015-Jun-28 07:33N 22°20' E 114°08'0 0.0
2015-Jun-28 06:33N 22°20' E 114°08'0 0.0
2015-Jun-28 05:33N 22°20' E 114°08'0 0.0
2015-Jun-28 04:33N 22°20' E 114°08'0 0.0
2015-Jun-28 03:33N 22°20' E 114°08'0 0.0
2015-Jun-28 02:33N 22°20' E 114°08'1 0.7
2015-Jun-28 01:34N 22°20' E 114°07'7 6.6
2015-Jun-28 00:28N 22°13' E 114°10'8 9.0
2015-Jun-27 23:33N 22°09' E 114°18'5 4.8
2015-Jun-27 22:33N 22°09' E 114°23'1514.8
2015-Jun-27 21:33N 22°09' E 114°39'15315.0
2015-Jun-27 11:21N 23°05' E 117°14'4315.5
2015-Jun-27 08:33N 23°35' E 117°48'1414.4
2015-Jun-27 07:33N 23°43' E 118°00'1413.9
2015-Jun-27 06:33N 23°54' E 118°10'1414.0
2015-Jun-27 05:33N 24°04' E 118°20'1414.4
2015-Jun-27 04:33N 24°17' E 118°13'1211.6
2015-Jun-27 03:33N 24°26' E 118°04'3 2.2
2015-Jun-27 02:14N 24°27' E 118°01'0 0.0
2015-Jun-26 21:20N 24°27' E 118°01'21 3.6
2015-Jun-26 15:22N 24°12' E 118°18'0 0.1
2015-Jun-26 13:12N 24°12' E 118°18'2010.3
2015-Jun-26 11:14N 24°26' E 118°02'811.6
2015-Jun-26 10:34N 24°21' E 118°09'1111.4
2015-Jun-26 09:33N 24°13' E 118°17'10 8.8
2015-Jun-26 08:22N 24°04' E 118°24'1214.6
2015-Jun-26 07:33N 23°54' E 118°30'9315.1
2015-Jun-26 01:25N 22°57' E 119°50'1416.2
2015-Jun-26 00:33N 22°47' E 120°00'1615.7
2015-Jun-25 23:33N 22°36' E 120°12'7 7.2
2015-Jun-25 22:33N 22°33' E 120°19'0 0.3
2015-Jun-25 21:29N 22°33' E 120°19'0 0.0
2015-Jun-25 20:29N 22°33' E 120°19'0 0.0
2015-Jun-25 17:29N 22°33' E 120°19'0 0.0
2015-Jun-25 16:29N 22°33' E 120°19'0 0.0
2015-Jun-25 15:23N 22°33' E 120°19'0 0.0
2015-Jun-25 14:23N 22°33' E 120°19'0 0.0
2015-Jun-25 13:29N 22°33' E 120°19'0 0.0
2015-Jun-25 12:20N 22°33' E 120°19'0 0.0
2015-Jun-25 11:20N 22°33' E 120°19'0 0.0
2015-Jun-25 10:32N 22°33' E 120°19'0 0.0
2015-Jun-25 09:32N 22°33' E 120°19'0 0.0
2015-Jun-25 08:32N 22°33' E 120°19'0 0.0
2015-Jun-25 07:32N 22°33' E 120°19'0 0.0
2015-Jun-25 06:32N 22°33' E 120°19'0 0.0
2015-Jun-25 05:33N 22°33' E 120°19'6 6.2
2015-Jun-25 04:32N 22°31' E 120°13'1111.6
2015-Jun-25 03:33N 22°22' E 120°05'  

Dump ship's entire track history